Tiempo atmosférico en la estación meteorológica de Puebla De Obando, Badajoz (392 m.)



Fecha
DESCASC
Temp. máxima en grados centígrados (hora)
DESCASC
Temp. mínima en grados centígrados (hora)
DESCASC
Temp. media en grados centígrados
DESCASC
Racha de viento máxima en m/sg (hora)
DESCASC
Velocidad máxima media en intervalos de 10 minutos(hora)
DESCASC
Precipitaciones diarias en mm
DESCASC
Precipitaciones de 00:00 a 06:00 en mm
DESCASC
Precipitaciones de 06:00 a 12:00 en mm
DESCASC
Precipitaciones de 12:00 a 18:00 en mm
DESCASC
Precipitaciones de 18:00 a 24:00 en mm
DESCASC
20-09-2020 25.7 (16:30) 16.5 (04:30) 21.1 8.89 (15:20) 6.11 (14:50) 0 0 0 0 0
19-09-2020 23.3 (17:00) 15.9 (07:30) 19.6 11.39 (01:10) 7.22 (03:40) 0.6 0.6 0 0 0
18-09-2020 22 (13:10) 14.4 (08:20) 18.2 15.56 (14:00) 8.61 (14:00) 18 0.2 0 4.4 13.4
17-09-2020 28.2 (16:00) 17.5 (00:00) 22.9 10.28 (19:40) 6.67 (13:10) 5.4 0 0 0 5.4
16-09-2020 29.7 (17:30) 13.9 (00:00) 21.8 6.67 (14:50) 4.17 (19:50) 0 0 0 0 0
15-09-2020 29 (17:00) 12.9 (00:00) 20.9 6.94 (17:40) 4.17 (17:50) 0 0 0 0 0
14-09-2020 31 (17:00) 18.6 (00:00) 24.8 9.72 (15:50) 6.39 (01:10) 0 0 0 0 0
13-09-2020 35.9 (17:00) 20.4 (00:00) 28.2 11.67 (15:40) 6.94 (23:30) 0 0 0 0 0
12-09-2020 35.1 (16:00) 16.4 (00:00) 25.7 7.78 (16:50) 4.72 (12:10) 0 0 0 0 0
11-09-2020 35 (17:50) 15.7 (00:00) 25.3 6.11 (15:20) 4.72 (00:40) 0 0 0 0 0
10-09-2020 34.3 (16:20) 16.9 (00:00) 25.6 7.22 (16:50) 4.17 (16:30) 0 0 0 0 0
09-09-2020 32.2 (17:50) 14.8 (00:00) 23.5 7.78 (09:50) 5.56 (00:20) 0 0 0 0 0
08-09-2020 31.2 (15:40) 17.8 (00:00) 24.5 11.11 (14:10) 4.72 (11:10) 0 0 0 0 0
07-09-2020 33.7 (16:00) 20.8 (08:10) 27.3 8.89 (10:30) 6.67 (10:50) 0 0 0 0 0
06-09-2020 36.3 (16:40) 18.4 (00:00) 27.3 8.33 (17:50) 3.89 (17:50) 0 0 0 0 0
05-09-2020 35.8 (17:10) 16.4 (00:00) 26.1 7.78 (18:50) 4.44 (18:50) 0 0 0 0 0
04-09-2020 35.2 (18:00) 17.5 (00:00) 26.4 8.06 (17:00) 4.44 (17:00) 0 0 0 0 0
03-09-2020 35 (16:30) 16.1 (00:00) 25.6 8.61 (15:20) 4.44 (14:30) 0 0 0 0 0
02-09-2020 33.6 (17:30) 12.5 (00:00) 23 8.33 (12:30) 4.44 (13:00) 0 0 0 0 0
01-09-2020 32.1 (17:40) 15.9 (00:00) 24 8.33 (15:10) 5.83 (22:00) 0 0 0 0 0
31-08-2020 31.1 (18:50) 13.2 (00:00) 22.2 7.78 (15:10) 4.44 (10:50) 0 0 0 0 0
30-08-2020 28.1 (16:50) 13 (00:00) 20.6 7.78 (00:30) 5 (02:10) 0 0 0 0 0
29-08-2020 26.1 (18:10) 13.8 (00:00) 20 12.5 (11:00) 8.06 (01:50) 0 0 0 0 0
28-08-2020 31.9 (16:40) 18.6 (00:00) 25.3 16.67 (17:20) 7.5 (20:20) 0 0 0 0 0
27-08-2020 37.3 (16:20) 18.2 (00:00) 27.8 12.22 (17:00) 7.78 (20:20) 0 0 0 0 0
26-08-2020 37.4 (18:00) 16.2 (00:00) 26.8 7.5 (14:50) 4.17 (17:40) 0 0 0 0 0
25-08-2020 37.5 (16:40) 18.2 (00:00) 27.9 8.06 (15:10) 4.72 (23:00) 0 0 0 0 0
24-08-2020 36.4 (15:50) 19.4 (00:00) 27.9 7.78 (01:50) 4.72 (01:50) 0 0 0 0 0
23-08-2020 35 (17:20) 17.2 (00:00) 26.1 8.33 (16:10) 4.72 (00:20) 0 0 0 0 0
22-08-2020 33.7 (18:50) 13.7 (00:00) 23.7 8.89 (15:00) 4.17 (15:00) 0 0 0 0 0

Gráficas

Temp. máximas Temp. mínimas Temp. medias Precipitaciones Rachas de viento máximas Velocidades máximas media en intervalos de 10 minutos

Datos horarios

Fecha y hora oficial Temperatura (ºC) Velocidad del viento (km/h) Dirección del viento Racha (km/h) Dirección de racha Precipitación (mm) Presión (hPa) Tendencia (hPa) Humedad (%)
2020-09-20 23:00:00 18.8 11 Noroeste 14 Noroeste 0 -- -- 69
2020-09-20 22:00:00 20.2 10 Norte 20 Noroeste 0 -- -- 63
2020-09-20 21:00:00 20.7 12 Noroeste 16 Noroeste 0 -- -- 63
2020-09-20 20:00:00 22.1 10 Noroeste 21 Oeste 0 -- -- 59
2020-09-20 19:00:00 23.9 17 Noroeste 27 Noroeste 0 -- -- 52
2020-09-20 18:00:00 24.5 14 Noroeste 26 Noroeste 0 -- -- 48
2020-09-20 17:00:00 25.1 17 Noroeste 30 Oeste 0 -- -- 51
2020-09-20 16:00:00 24.4 17 Noroeste 32 Noroeste 0 -- -- 57
2020-09-20 15:00:00 22.9 20 Noroeste 30 Noroeste 0 -- -- 64
2020-09-20 14:00:00 22.3 18 Oeste 27 Oeste 0 -- -- 66
2020-09-20 13:00:00 21.1 14 Oeste 26 Oeste 0 -- -- 72
2020-09-20 12:00:00 20.8 17 Sudoeste 30 Oeste 0 -- -- 75
2020-09-20 11:00:00 19.3 15 Sudoeste 25 Oeste 0 -- -- 85
2020-09-20 10:00:00 17.5 12 Sudoeste 24 Sudoeste 0 -- -- 95
2020-09-20 09:00:00 16.9 13 Sudoeste 22 Sudoeste 0 -- -- 98
2020-09-20 08:00:00 16.7 15 Sudoeste 26 Oeste 0 -- -- 98
2020-09-20 07:00:00 16.7 14 Sudoeste 23 Sudoeste 0 -- -- 97
2020-09-20 06:00:00 16.8 11 Sudoeste 23 Sudoeste 0 -- -- 97
2020-09-20 05:00:00 16.5 14 Sudoeste 21 Sudoeste 0 -- -- 98
2020-09-20 04:00:00 16.7 10 Sudoeste 18 Sudoeste 0 -- -- 95
2020-09-20 03:00:00 16.7 10 Sudoeste 18 Oeste 0 -- -- 92
2020-09-20 02:00:00 17.7 10 Oeste 19 Oeste 0 -- -- 88
2020-09-20 01:00:00 17.7 5 Oeste 19 Oeste 0 -- -- 85
2020-09-20 00:00:00 18.8 11 Oeste 28 Oeste 0 -- -- 80
2020-09-19 23:00:00 19.3 12 Oeste 19 Noroeste 0 -- -- 76
2020-09-19 22:00:00 19.4 6 Noroeste 21 Oeste 0 -- -- 76
2020-09-19 21:00:00 20.8 14 Oeste 24 Oeste 0 -- -- 65
2020-09-19 20:00:00 21.5 9 Sudoeste 25 Oeste 0 -- -- 64
2020-09-19 19:00:00 22.2 17 Oeste 27 Oeste 0 -- -- 61
2020-09-19 18:00:00 22.1 19 Oeste 31 Oeste 0 -- -- 62
2020-09-19 17:00:00 23.3 18 Oeste 30 Oeste 0 -- -- 58
2020-09-19 16:00:00 21.9 19 Oeste 31 Sudoeste 0 -- -- 59
2020-09-19 15:00:00 22.6 19 Oeste 31 Sudoeste 0 -- -- 59
2020-09-19 14:00:00 22 20 Sudoeste 33 Sudoeste 0 -- -- 63
2020-09-19 13:00:00 20.3 18 Oeste 28 Oeste 0 -- -- 71
2020-09-19 12:00:00 19.1 18 Oeste 28 Oeste 0 -- -- 81
2020-09-19 11:00:00 17.3 14 Oeste 25 Sudoeste 0 -- -- 91
2020-09-19 10:00:00 16.4 15 Sudoeste 28 Sudoeste 0 -- -- 95
2020-09-19 09:00:00 16.1 17 Sudoeste 27 Sudoeste 0 -- -- 99
2020-09-19 08:00:00 16 16 Sudoeste 29 Sudoeste 0 -- -- 99
2020-09-19 07:00:00 16 18 Sudoeste 31 Sudoeste 0 -- -- 99
2020-09-19 06:00:00 16.2 20 Sudoeste 35 Sudoeste 0 -- -- 98
2020-09-19 05:00:00 16.3 20 Sudoeste 39 Sudoeste 0 -- -- 98
2020-09-19 04:00:00 16.5 21 Sudoeste 40 Sudoeste 0 -- -- 96
2020-09-19 03:00:00 16.5 21 Sudoeste 35 Sudoeste 0 -- -- 96
2020-09-19 02:00:00 16.5 20 Sudoeste 41 Sudoeste 0.6 -- -- 95
2020-09-19 01:00:00 16.6 17 Sudoeste 36 Sur 0 -- -- 95
2020-09-19 00:00:00 16.6 21 Sudoeste 40 Sudoeste 0 -- -- 95
2020-09-18 23:00:00 16.7 20 Sudoeste 35 Sudoeste 0 -- -- 97
2020-09-18 22:00:00 16.8 20 Sur 34 Sur 0 -- -- 97
2020-09-18 21:00:00 16.8 20 Sudoeste 48 Sudoeste 5.6 -- -- 96
2020-09-18 20:00:00 17.8 13 Sudoeste 29 Oeste 0.2 -- -- 92
2020-09-18 19:00:00 17.4 17 Sudoeste 44 Sur 7.6 -- -- 92
2020-09-18 18:00:00 19.9 19 Sur 41 Sudeste 0 -- -- 78
2020-09-18 17:00:00 20 25 Sur 42 Sur 0 -- -- 77
2020-09-18 16:00:00 20.1 21 Sudeste 36 Sudeste 0.2 -- -- 83
2020-09-18 15:00:00 16.6 17 Sudeste 39 Sudeste 1.2 -- -- 91
2020-09-18 14:00:00 17.8 31 Sur 56 Sur 3 -- -- 89
2020-09-18 13:00:00 21.9 20 Sur 35 Sudeste 0 -- -- 66
2020-09-18 12:00:00 21.2 21 Sudeste 35 Sur 0 -- -- 65
2020-09-18 11:00:00 19.4 21 Sudeste 31 Sudeste 0 -- -- 80
2020-09-18 10:00:00 18.2 13 Sudeste 19 Sudeste 0 -- -- 90
2020-09-18 09:00:00 15.1 7 Sudeste 10 Sudeste 0 -- -- 100
2020-09-18 08:00:00 15 8 Sur 17 Sur 0 -- -- 95
2020-09-18 07:00:00 15.4 12 Sur 21 Sudeste 0 -- -- 97
2020-09-18 06:00:00 15.5 10 Sur 14 Sur 0 -- -- 100
2020-09-18 05:00:00 15 4 Sudeste 9 Sur 0 -- -- 99
2020-09-18 04:00:00 15.8 7 Sur 18 Sur 0 -- -- 97
2020-09-18 03:00:00 17 12 Sur 18 Sur 0.2 -- -- 98
2020-09-18 02:00:00 17.2 0 Calma 7 Sudeste 0 -- -- 99
2020-09-18 01:00:00 17.4 3 Oeste 10 Sudoeste 0 -- -- 97
2020-09-18 00:00:00 17.5 6 Sudoeste 20 Oeste 3.2 -- -- 98
2020-09-17 23:00:00 17.5 5 Sudoeste 17 Oeste 0 -- -- 95
2020-09-17 22:00:00 17.9 10 Oeste 21 Oeste 0 -- -- 93
2020-09-17 21:00:00 17.6 10 Oeste 14 Oeste 0 -- -- 93
2020-09-17 20:00:00 17.7 9 Oeste 37 Oeste 2 -- -- 92
2020-09-17 19:00:00 20.7 7 Noroeste 26 Oeste 0.2 -- -- 76
2020-09-17 18:00:00 24.4 18 Noroeste 32 Sudoeste 0 -- -- 56
2020-09-17 17:00:00 26.5 14 Sudoeste 31 Sur 0 -- -- 44
2020-09-17 16:00:00 28.2 20 Sur 32 Sur 0 -- -- 41
2020-09-17 15:00:00 24.6 20 Sur 31 Sur 0 -- -- 55
2020-09-17 14:00:00 24 17 Sudeste 33 Sur 0 -- -- 58
2020-09-17 13:00:00 23.7 20 Sur 37 Sur 0 -- -- 56
2020-09-17 12:00:00 24.1 19 Sur 36 Sur 0 -- -- 56
2020-09-17 11:00:00 22.3 21 Sur 31 Sudeste 0 -- -- 66
2020-09-17 10:00:00 21 14 Sur 22 Sur 0 -- -- 74
2020-09-17 09:00:00 20.4 10 Sur 22 Sur 0 -- -- 76
2020-09-17 08:00:00 19.9 14 Sur 30 Sudoeste 0 -- -- 76
2020-09-17 07:00:00 20 12 Sur 19 Sur 0 -- -- 72
2020-09-17 06:00:00 20.4 13 Sur 27 Sur 0 -- -- 66
2020-09-17 05:00:00 20.8 14 Sur 25 Sur 0 -- -- 64
2020-09-17 04:00:00 20.2 9 Sur 14 Sudeste 0 -- -- 67
2020-09-17 03:00:00 20.6 5 Sudeste 9 Sudeste 0 -- -- 64
2020-09-17 02:00:00 20.6 4 Sudeste 7 Sudeste 0 -- -- 64
2020-09-17 01:00:00 20 3 Este 8 Noroeste 0 -- -- 64
2020-09-17 00:00:00 21.2 4 Oeste 13 Oeste 0 -- -- 57
2020-09-16 23:00:00 23 9 Oeste 13 Oeste 0 -- -- 55
2020-09-16 22:00:00 23.8 8 Oeste 14 Oeste 0 -- -- 53
2020-09-16 21:00:00 25.1 8 Oeste 19 Oeste 0 -- -- 48
2020-09-16 20:00:00 27.5 13 Oeste 20 Oeste 0 -- -- 42
2020-09-16 19:00:00 28.1 10 Sur 15 Sur 0 -- -- 39
2020-09-16 18:00:00 28.8 9 Sudeste 16 Sudeste 0 -- -- 38
2020-09-16 17:00:00 28.9 13 Sudoeste 21 Sudoeste 0 -- -- 38
2020-09-16 16:00:00 29.1 8 Sur 20 Sur -- -- -- 39
2020-09-16 15:00:00 -- -- -- -- -- -- -- -- --
2020-09-16 14:00:00 28.5 13 Sur 22 Sur 0 -- -- 40
2020-09-16 13:00:00 28.6 11 Sur 21 Sudeste 0 -- -- 39
2020-09-16 12:00:00 25.2 12 Sudeste 18 Sur 0 -- -- 47
2020-09-16 11:00:00 23.3 11 Sur 15 Sur 0 -- -- 53
2020-09-16 10:00:00 20.6 4 Sudeste 6 Sur 0 -- -- 63
2020-09-16 09:00:00 16.1 2 Oeste 4 Oeste 0 -- -- 78
2020-09-16 08:00:00 14.6 3 Nordeste 4 Nordeste 0 -- -- 83
2020-09-16 07:00:00 14.1 0 Calma -- -- 0 -- -- 83
2020-09-16 06:00:00 14.9 0 Calma 5 Oeste 0 -- -- 75
2020-09-16 05:00:00 16.3 5 Oeste 12 Noroeste 0 -- -- 73
2020-09-16 04:00:00 17.9 8 Oeste 13 Oeste 0 -- -- 65
2020-09-16 03:00:00 18.4 5 Norte 12 Norte 0 -- -- 61
2020-09-16 02:00:00 18.2 6 Norte 12 Norte 0 -- -- 60
2020-09-16 01:00:00 17.7 0 Calma 3 Sudeste 0 -- -- 57
2020-09-16 00:00:00 18.5 3 Sudeste 6 Noroeste 0 -- -- 54
2020-09-15 23:00:00 20 6 Noroeste 8 Noroeste 0 -- -- 53
2020-09-15 22:00:00 22 4 Noroeste 6 Oeste 0 -- -- 51
2020-09-15 21:00:00 24.6 4 Noroeste 13 Oeste 0 -- -- 45
2020-09-15 20:00:00 27.7 6 Oeste 24 Oeste 0 -- -- 38
2020-09-15 19:00:00 28.7 12 Oeste 22 Oeste 0 -- -- 38
2020-09-15 18:00:00 28.9 13 Sudoeste 25 Sudoeste 0 -- -- 38
2020-09-15 17:00:00 29 12 Sudoeste 24 Oeste 0 -- -- 37
2020-09-15 16:00:00 28.4 15 Sudoeste 24 Sudoeste 0 -- -- 40
2020-09-15 15:00:00 27.9 10 Sudoeste 24 Sudoeste 0 -- -- 43
2020-09-15 14:00:00 27.1 10 Sudoeste 21 Oeste 0 -- -- 45
2020-09-15 13:00:00 25.9 12 Sur 21 Sur 0 -- -- 51
2020-09-15 12:00:00 24.6 8 Sur 17 Sur 0 -- -- 56
2020-09-15 11:00:00 23 4 Sur 8 Sudoeste 0 -- -- 61
2020-09-15 10:00:00 20 0 Calma -- -- 0 -- -- 73
2020-09-15 09:00:00 15.2 0 Calma -- -- 0 -- -- 90
2020-09-15 08:00:00 13.2 0 Calma -- -- 0 -- -- 89
2020-09-15 07:00:00 13.6 0 Calma -- -- 0 -- -- 86
2020-09-15 06:00:00 14.3 0 Calma -- -- 0 -- -- 82
2020-09-15 05:00:00 15.4 0 Calma -- -- 0 -- -- 77
2020-09-15 04:00:00 16.6 0 Calma 8 Oeste 0 -- -- 70
2020-09-15 03:00:00 18.2 6 Oeste 13 Oeste 0 -- -- 69
2020-09-15 02:00:00 18.6 7 Oeste 9 Noroeste 0 -- -- 66
2020-09-15 01:00:00 20.4 7 Noroeste 13 Oeste 0 -- -- 60
2020-09-15 00:00:00 22.1 11 Oeste 17 Oeste 0 -- -- 54
2020-09-14 23:00:00 22.8 7 Oeste 12 Oeste 0 -- -- 55
2020-09-14 22:00:00 24.8 7 Sudoeste 21 Oeste 0 -- -- 53
2020-09-14 21:00:00 27 12 Oeste 29 Oeste 0 -- -- 43
2020-09-14 20:00:00 29 19 Oeste 29 Oeste 0 -- -- 38
2020-09-14 19:00:00 29.6 14 Oeste 28 Oeste 0 -- -- 41
2020-09-14 18:00:00 29.2 16 Oeste 28 Sudoeste 0 -- -- 44
2020-09-14 17:00:00 31 14 Oeste 33 Sudoeste 0 -- -- 40
2020-09-14 16:00:00 30.6 18 Sur 35 Sudoeste 0 -- -- 40
2020-09-14 15:00:00 29 12 Sudoeste 31 Sur 0 -- -- 44
2020-09-14 14:00:00 30 15 Sur 28 Sudoeste 0 -- -- 39
2020-09-14 13:00:00 28.8 10 Sur 21 Nordeste 0 -- -- 41
2020-09-14 12:00:00 27.4 10 Sur 17 Sudoeste 0 -- -- 47
2020-09-14 11:00:00 25.4 5 Nordeste 15 Norte 0 -- -- 58
2020-09-14 10:00:00 22.4 5 Norte 9 Norte 0 -- -- 70
2020-09-14 09:00:00 18.6 0 Calma 3 Sudeste 0 -- -- 81
2020-09-14 08:00:00 19.2 0 Calma 4 Sudoeste 0 -- -- 80
2020-09-14 07:00:00 19.5 0 Calma 5 Sudoeste 0 -- -- 80
2020-09-14 06:00:00 19.8 0 Calma 3 Sur 0 -- -- 77
2020-09-14 05:00:00 20.5 0 Calma 10 Sudoeste 0 -- -- 77
2020-09-14 04:00:00 21.6 8 Sudoeste 20 Sudoeste 0 -- -- 73
2020-09-14 03:00:00 22.1 13 Sudoeste 27 Oeste 0 -- -- 70
2020-09-14 02:00:00 22.9 17 Oeste 33 Oeste 0 -- -- 67
2020-09-14 01:00:00 23.9 21 Oeste 30 Oeste 0 -- -- 62
2020-09-14 00:00:00 24.8 22 Oeste 36 Oeste 0 -- -- 58
2020-09-13 23:00:00 26.3 23 Oeste 35 Sudoeste 0 -- -- 53
2020-09-13 22:00:00 27.8 16 Oeste 27 Oeste 0 -- -- 44
2020-09-13 21:00:00 30.4 16 Sudoeste 26 Sudoeste 0 -- -- 33
2020-09-13 20:00:00 32.7 17 Sur 31 Sur 0 -- -- 23
2020-09-13 19:00:00 34.8 22 Sur 38 Sur 0 -- -- 21
2020-09-13 18:00:00 35.3 20 Sur 38 Sudeste 0 -- -- 20
2020-09-13 17:00:00 35.9 18 Sur 37 Sudeste 0 -- -- 21
2020-09-13 16:00:00 34.7 22 Sur 42 Sudeste 0 -- -- 22
2020-09-13 15:00:00 33.9 19 Sudeste 39 Sudeste 0 -- -- 24
2020-09-13 14:00:00 32.9 23 Sudeste 35 Sudeste 0 -- -- 25
2020-09-13 13:00:00 30.8 19 Sudeste 31 Sudeste 0 -- -- 26
2020-09-13 12:00:00 30.5 22 Sudeste 31 Sudeste 0 -- -- 29
2020-09-13 11:00:00 27.9 20 Sudeste 28 Sudeste 0 -- -- 33
2020-09-13 10:00:00 25.3 15 Sudeste 20 Sudeste 0 -- -- 37
2020-09-13 09:00:00 21.2 5 Sudeste 12 Sudeste 0 -- -- 45
2020-09-13 08:00:00 20.9 7 Sudeste 13 Sudeste 0 -- -- 45
2020-09-13 07:00:00 20.4 10 Sudeste 15 Sudeste 0 -- -- 49
2020-09-13 06:00:00 21.8 12 Sudeste 17 Sur 0 -- -- 46
2020-09-13 05:00:00 23.7 13 Sur 22 Sur 0 -- -- 38
2020-09-13 04:00:00 22.3 12 Sudeste 14 Sudeste 0 -- -- 41
2020-09-13 03:00:00 22.9 10 Sudeste 13 Sudeste 0 -- -- 39
2020-09-13 02:00:00 24.9 13 Sudeste 17 Sudeste 0 -- -- 34
2020-09-13 01:00:00 22.8 6 Sudeste 11 Sudeste 0 -- -- 38
2020-09-13 00:00:00 24.3 0 Calma 3 Sur 0 -- -- 35
2020-09-12 23:00:00 25.1 0 Calma 5 Sur 0 -- -- 34
2020-09-12 22:00:00 27 3 Sur 5 Sur 0 -- -- 31
2020-09-12 21:00:00 29.6 3 Sudeste 14 Este 0 -- -- 27
2020-09-12 20:00:00 32.1 7 Este 16 Este 0 -- -- 25
2020-09-12 19:00:00 33.8 8 Este 20 Este 0 -- -- 22
2020-09-12 18:00:00 34.6 9 Sur 24 Este 0 -- -- 22
2020-09-12 17:00:00 33.6 10 Este 28 Sudeste 0 -- -- 23
2020-09-12 16:00:00 35.1 13 Sur 28 Sudeste 0 -- -- 22
2020-09-12 15:00:00 34.2 10 Sudeste 21 Sudeste 0 -- -- 22
2020-09-12 14:00:00 33.7 13 Sur 22 Sur 0 -- -- 23
2020-09-12 13:00:00 32.2 14 Sudeste 24 Sudeste 0 -- -- 25
2020-09-12 12:00:00 30.3 15 Sudeste 22 Sur 0 -- -- 29
2020-09-12 11:00:00 28.1 9 Sudeste 15 Sudeste 0 -- -- 35
2020-09-12 10:00:00 24.2 7 Sudeste 10 Sudeste 0 -- -- 43
2020-09-12 09:00:00 18.3 2 Sudoeste 3 Sudoeste 0 -- -- 56
2020-09-12 08:00:00 16.9 4 Sudeste 12 Sudeste 0 -- -- 55
2020-09-12 07:00:00 18.3 6 Sudeste 16 Sudeste 0 -- -- 48
2020-09-12 06:00:00 19 7 Sudeste 13 Sudeste 0 -- -- 44
2020-09-12 05:00:00 18.7 0 Calma 4 Sur 0 -- -- 47
2020-09-12 04:00:00 18.8 0 Calma 7 Sudeste 0 -- -- 43
2020-09-12 03:00:00 20.4 6 Sudeste 12 Sudeste 0 -- -- 40
2020-09-12 02:00:00 22.7 0 Calma 8 Noroeste 0 -- -- 34
2020-09-12 01:00:00 23.4 4 Norte 12 Oeste 0 -- -- 32
2020-09-12 00:00:00 23 4 Noroeste 11 Nordeste 0 -- -- 31
2020-09-11 23:00:00 22.9 4 Noroeste 5 Noroeste 0 -- -- 32
2020-09-11 22:00:00 24.9 5 Noroeste 6 Noroeste 0 -- -- 29
2020-09-11 21:00:00 27.6 2 Nordeste 8 Oeste 0 -- -- 26
2020-09-11 20:00:00 32.7 0 Calma 13 Nordeste 0 -- -- 21
2020-09-11 19:00:00 33.8 5 Nordeste 16 Oeste 0 -- -- 19
2020-09-11 18:00:00 34.6 10 Oeste 22 Oeste 0 -- -- 18
2020-09-11 17:00:00 34.5 6 Noroeste 20 Oeste 0 -- -- 19
2020-09-11 16:00:00 33.8 9 Sudoeste 22 Sudoeste 0 -- -- 19
2020-09-11 15:00:00 33.4 10 Sur 21 Sur 0 -- -- 19
2020-09-11 14:00:00 33 6 Sur 17 Sudeste 0 -- -- 22
2020-09-11 13:00:00 31.4 10 Sur 18 Sur 0 -- -- 24
2020-09-11 12:00:00 29.8 10 Sudeste 16 Sudeste 0 -- -- 27
2020-09-11 11:00:00 26.3 9 Sudeste 13 Sudeste 0 -- -- 33
2020-09-11 10:00:00 23.3 0 Calma 8 Nordeste 0 -- -- 40
2020-09-11 09:00:00 20.1 5 Norte 9 Noroeste 0 -- -- 46
2020-09-11 08:00:00 18.1 3 Noroeste 7 Norte 0 -- -- 48
2020-09-11 07:00:00 16 0 Calma 4 Sudoeste 0 -- -- 54
2020-09-11 06:00:00 16.4 2 Sur 12 Sudeste 0 -- -- 55
2020-09-11 05:00:00 19.5 6 Oeste 9 Noroeste 0 -- -- 48
2020-09-11 04:00:00 21.4 5 Norte 9 Noroeste 0 -- -- 45
2020-09-11 03:00:00 22.1 4 Noroeste 11 Nordeste 0 -- -- 40
2020-09-11 02:00:00 20.3 4 Noroeste 6 Norte 0 -- -- 37
2020-09-11 01:00:00 20.4 4 Noroeste 21 Noroeste 0 -- -- 35
2020-09-11 00:00:00 20.5 0 Calma -- -- 0 -- -- 33
2020-09-10 23:00:00 22 0 Calma 4 Sudeste 0 -- -- 32
2020-09-10 22:00:00 23.9 2 Sudeste 6 Norte 0 -- -- 29
2020-09-10 21:00:00 28.5 4 Norte 12 Norte 0 -- -- 23
2020-09-10 20:00:00 31.2 9 Nordeste 18 Nordeste 0 -- -- 21
2020-09-10 19:00:00 33.4 5 Norte 21 Norte 0 -- -- 18
2020-09-10 18:00:00 33.7 13 Norte 25 Norte 0 -- -- 18
2020-09-10 17:00:00 34 8 Oeste 26 Noroeste 0 -- -- 18
2020-09-10 16:00:00 34 6 Oeste 24 Este 0 -- -- 19
2020-09-10 15:00:00 32.8 4 Este 22 Noroeste 0 -- -- 19
2020-09-10 14:00:00 33.1 8 Oeste 19 Oeste 0 -- -- 21
2020-09-10 13:00:00 31.6 12 Oeste 18 Oeste 0 -- -- 23
2020-09-10 12:00:00 30.6 3 Este 9 Sur 0 -- -- 25
2020-09-10 11:00:00 27.3 2 Este 10 Norte 0 -- -- 28
2020-09-10 10:00:00 24.1 5 Norte 8 Norte 0 -- -- 33
2020-09-10 09:00:00 18.9 0 Calma 6 Oeste 0 -- -- 44
2020-09-10 08:00:00 17.9 2 Norte 8 Oeste 0 -- -- 41
2020-09-10 07:00:00 17.6 8 Oeste 10 Oeste 0 -- -- 44
2020-09-10 06:00:00 19.7 0 Calma 4 Oeste 0 -- -- 38
2020-09-10 05:00:00 17.8 0 Calma 10 Noroeste 0 -- -- 43
2020-09-10 04:00:00 18.8 3 Noroeste 8 Norte 0 -- -- 39
2020-09-10 03:00:00 19 4 Norte 13 Oeste 0 -- -- 38
2020-09-10 02:00:00 19.7 0 Calma 13 Oeste 0 -- -- 35
2020-09-10 01:00:00 19.4 2 Sur 6 Oeste 0 -- -- 36
2020-09-10 00:00:00 21.1 0 Calma 5 Noroeste 0 -- -- 32
2020-09-09 23:00:00 22.3 2 Oeste 5 Nordeste 0 -- -- 29
2020-09-09 22:00:00 23.1 4 Nordeste 6 Norte 0 -- -- 28
2020-09-09 21:00:00 27 4 Norte 17 Nordeste 0 -- -- 23
2020-09-09 20:00:00 30 9 Norte 22 Norte 0 -- -- 21
2020-09-09 19:00:00 31.3 11 Norte 20 Norte 0 -- -- 21
2020-09-09 18:00:00 32.1 6 Este 23 Nordeste 0 -- -- 23
2020-09-09 17:00:00 31.2 12 Nordeste 22 Nordeste 0 -- -- 25
2020-09-09 16:00:00 31.1 8 Norte 21 Nordeste 0 -- -- 28
2020-09-09 15:00:00 30.4 7 Sudeste 20 Sudeste 0 -- -- 31
2020-09-09 14:00:00 29 10 Sudeste 26 Sudeste 0 -- -- 35
2020-09-09 13:00:00 28.2 9 Sudeste 21 Este 0 -- -- 37
2020-09-09 12:00:00 26.3 10 Sudeste 21 Sudeste 0 -- -- 40
2020-09-09 11:00:00 24.7 12 Sudeste 24 Sur 0 -- -- 43
2020-09-09 10:00:00 22.6 18 Sudeste 28 Sudeste 0 -- -- 44
2020-09-09 09:00:00 18.6 10 Sudeste 15 Sudeste 0 -- -- 48
2020-09-09 08:00:00 15.1 0 Calma -- -- 0 -- -- 52
2020-09-09 07:00:00 15.7 0 Calma 8 Oeste 0 -- -- 52
2020-09-09 06:00:00 17.2 6 Oeste 14 Oeste 0 -- -- 46
2020-09-09 05:00:00 20.4 8 Sur 16 Sudeste 0 -- -- 39
2020-09-09 04:00:00 20.4 9 Sudeste 12 Este 0 -- -- 38
2020-09-09 03:00:00 21 8 Sudeste 18 Este 0 -- -- 37
2020-09-09 02:00:00 19.8 0 Calma 10 Nordeste 0 -- -- 40
2020-09-09 01:00:00 22.9 3 Sudoeste 27 Este 0 -- -- 34
2020-09-09 00:00:00 23.9 15 Nordeste 22 Este 0 -- -- 33
2020-09-08 23:00:00 24.6 14 Nordeste 23 Nordeste 0 -- -- 32
2020-09-08 22:00:00 25.3 16 Este 23 Este 0 -- -- 27
2020-09-08 21:00:00 25.4 8 Este 14 Nordeste 0 -- -- 30
2020-09-08 20:00:00 28.7 12 Este 19 Nordeste 0 -- -- 25
2020-09-08 19:00:00 30.2 10 Este 32 Sudeste 0 -- -- 23
2020-09-08 18:00:00 30.7 12 Nordeste 26 Este 0 -- -- 23
2020-09-08 17:00:00 30.9 12 Nordeste 28 Nordeste 0 -- -- 22
2020-09-08 16:00:00 30.8 12 Nordeste 27 Este 0 -- -- 23
2020-09-08 15:00:00 30.5 13 Este 40 Este 0 -- -- 23
2020-09-08 14:00:00 29.7 15 Sudeste 37 Este 0 -- -- 26
2020-09-08 13:00:00 28.2 14 Este 30 Nordeste 0 -- -- 31
2020-09-08 12:00:00 26.3 13 Nordeste 31 Este 0 -- -- 33
2020-09-08 11:00:00 24.4 14 Este 28 Este 0 -- -- 38
2020-09-08 10:00:00 22.1 13 Nordeste 19 Este 0 -- -- 37
2020-09-08 09:00:00 19 9 Nordeste 15 Norte 0 -- -- 35
2020-09-08 08:00:00 17.9 7 Nordeste 16 Nordeste 0 -- -- 35
2020-09-08 07:00:00 18.9 10 Nordeste 22 Este 0 -- -- 33
2020-09-08 06:00:00 19.7 13 Nordeste 18 Nordeste 0 -- -- 32
2020-09-08 05:00:00 20.3 14 Nordeste 19 Nordeste 0 -- -- 30
2020-09-08 04:00:00 20 11 Nordeste 17 Norte 0 -- -- 34
2020-09-08 03:00:00 21.4 12 Nordeste 16 Norte 0 -- -- 33
2020-09-08 02:00:00 21.2 10 Nordeste 17 Este 0 -- -- 32
2020-09-08 01:00:00 22.4 5 Nordeste 19 Nordeste 0 -- -- 32
2020-09-08 00:00:00 23.1 12 Nordeste 25 Nordeste 0 -- -- 29
2020-09-07 23:00:00 25.7 14 Nordeste 23 Norte 0 -- -- 26
2020-09-07 22:00:00 26.4 8 Nordeste 20 Norte 0 -- -- 29
2020-09-07 21:00:00 28.1 6 Nordeste 20 Nordeste 0 -- -- 24
2020-09-07 20:00:00 30.7 14 Norte 28 Nordeste 0 -- -- 21
2020-09-07 19:00:00 31.9 16 Nordeste 29 Nordeste 0 -- -- 20
2020-09-07 18:00:00 33.1 17 Norte 29 Norte 0 -- -- 22
2020-09-07 17:00:00 33.3 16 Norte 28 Norte 0 -- -- 24
2020-09-07 16:00:00 33.7 15 Norte 27 Norte 0 -- -- 24
2020-09-07 15:00:00 33.3 13 Norte 27 Nordeste 0 -- -- 25
2020-09-07 14:00:00 32 14 Norte 24 Nordeste 0 -- -- 27
2020-09-07 13:00:00 30.4 14 Norte 25 Nordeste 0 -- -- 29
2020-09-07 12:00:00 28.7 17 Nordeste 29 Nordeste 0 -- -- 32
2020-09-07 11:00:00 25.6 23 Nordeste 32 Norte 0 -- -- 37
2020-09-07 10:00:00 24 21 Norte 29 Norte 0 -- -- 41
2020-09-07 09:00:00 22.3 18 Norte 26 Norte 0 -- -- 45
2020-09-07 08:00:00 20.9 14 Nordeste 22 Norte 0 -- -- 49
2020-09-07 07:00:00 22.3 12 Norte 18 Norte 0 -- -- 45
2020-09-07 06:00:00 22.9 12 Norte 14 Norte 0 -- -- 43
2020-09-07 05:00:00 23.3 12 Norte 14 Norte 0 -- -- 41
2020-09-07 04:00:00 23.8 12 Norte 15 Norte 0 -- -- 40
2020-09-07 03:00:00 24.9 11 Norte 14 Norte 0 -- -- 37
2020-09-07 02:00:00 25.8 10 Norte 18 Norte 0 -- -- 34
2020-09-07 01:00:00 23.2 9 Noroeste 17 Norte 0 -- -- 37
2020-09-07 00:00:00 24.6 5 Oeste 6 Oeste 0 -- -- 34
2020-09-06 23:00:00 26.4 4 Norte 7 Nordeste 0 -- -- 31
2020-09-06 22:00:00 28.8 4 Norte 11 Norte 0 -- -- 28
2020-09-06 21:00:00 31.4 8 Noroeste 15 Noroeste 0 -- -- 25
2020-09-06 20:00:00 34.1 8 Norte 19 Nordeste 0 -- -- 21
2020-09-06 19:00:00 35.2 12 Norte 21 Oeste 0 -- -- 19
2020-09-06 18:00:00 35.9 12 Oeste 30 Noroeste 0 -- -- 19
2020-09-06 17:00:00 36.3 10 Noroeste 22 Norte 0 -- -- 19
2020-09-06 16:00:00 35.8 9 Noroeste 21 Oeste 0 -- -- 19
2020-09-06 15:00:00 34.7 5 Norte 20 Sudoeste 0 -- -- 22
2020-09-06 14:00:00 33.6 4 Norte 13 Sur 0 -- -- 24
2020-09-06 13:00:00 31.4 6 Nordeste 12 Sudoeste 0 -- -- 27
2020-09-06 12:00:00 29.2 5 Sudeste 11 Sudeste 0 -- -- 30
2020-09-06 11:00:00 26.8 3 Este 11 Sudeste 0 -- -- 34
2020-09-06 10:00:00 24.5 7 Sur 12 Sudeste 0 -- -- 36
2020-09-06 09:00:00 20.7 8 Sudeste 14 Sudeste 0 -- -- 42
2020-09-06 08:00:00 21 3 Noroeste 19 Norte 0 -- -- 41
2020-09-06 07:00:00 19.4 12 Norte 26 Norte 0 -- -- 45
2020-09-06 06:00:00 18.5 0 Calma 6 Sudeste 0 -- -- 47
2020-09-06 05:00:00 20.3 6 Sudeste 9 Oeste 0 -- -- 43
2020-09-06 04:00:00 22.8 6 Noroeste 12 Oeste 0 -- -- 38
2020-09-06 03:00:00 23.8 3 Noroeste 10 Noroeste 0 -- -- 35
2020-09-06 02:00:00 23 6 Oeste 16 Oeste 0 -- -- 34
2020-09-06 01:00:00 24.3 4 Norte 6 Norte 0 -- -- 32
2020-09-06 00:00:00 23.9 0 Calma 5 Noroeste 0 -- -- 32
2020-09-05 23:00:00 25.5 0 Calma 10 Oeste 0 -- -- 28
2020-09-05 22:00:00 28 6 Oeste 19 Sudoeste 0 -- -- 24
2020-09-05 21:00:00 30.6 14 Sudoeste 21 Sudoeste 0 -- -- 22
2020-09-05 20:00:00 33.6 12 Oeste 19 Sudoeste 0 -- -- 22
2020-09-05 19:00:00 34.7 14 Oeste 28 Oeste 0 -- -- 21
2020-09-05 18:00:00 35 6 Nordeste 23 Sudoeste 0 -- -- 21
2020-09-05 17:00:00 35.6 10 Sudoeste 21 Noroeste 0 -- -- 21
2020-09-05 16:00:00 35.1 8 Oeste 21 Sudoeste 0 -- -- 22
2020-09-05 15:00:00 33.9 9 Oeste 19 Sudoeste 0 -- -- 23
2020-09-05 14:00:00 32.9 8 Oeste 24 Sudoeste 0 -- -- 26
2020-09-05 13:00:00 31.1 5 Sur 15 Sur 0 -- -- 29
2020-09-05 12:00:00 29.2 9 Sudoeste 14 Sur 0 -- -- 33
2020-09-05 11:00:00 26.9 6 Sur 12 Sur 0 -- -- 36
2020-09-05 10:00:00 24.2 2 Sudeste 8 Sudeste 0 -- -- 42
2020-09-05 09:00:00 19.5 6 Sudeste 8 Sudeste 0 -- -- 50
2020-09-05 08:00:00 16.4 8 Sudeste 12 Sudeste 0 -- -- 56
2020-09-05 07:00:00 17.4 3 Sur 6 Sudeste 0 -- -- 52
2020-09-05 06:00:00 19.2 0 Calma 7 Noroeste 0 -- -- 48
2020-09-05 05:00:00 21.3 6 Norte 12 Norte 0 -- -- 44
2020-09-05 04:00:00 21.1 4 Noroeste 8 Oeste 0 -- -- 44
2020-09-05 03:00:00 24.5 5 Norte 23 Sudoeste 0 -- -- 37
2020-09-05 02:00:00 25.3 4 Noroeste 11 Norte 0 -- -- 37
2020-09-05 01:00:00 26.5 5 Norte 10 Norte 0 -- -- 33
2020-09-05 00:00:00 23.1 4 Norte 6 Norte 0 -- -- 38
2020-09-04 23:00:00 24.3 3 Nordeste 9 Noroeste 0 -- -- 33
2020-09-04 22:00:00 25.9 5 Noroeste 9 Noroeste 0 -- -- 27
2020-09-04 21:00:00 29.3 7 Sur 13 Sur 0 -- -- 24
2020-09-04 20:00:00 33 11 Sudeste 19 Sur 0 -- -- 22
2020-09-04 19:00:00 34.7 7 Sur 18 Sudeste 0 -- -- 23
2020-09-04 18:00:00 35.2 6 Sur 22 Sur 0 -- -- 22
2020-09-04 17:00:00 34.9 16 Sudeste 29 Este 0 -- -- 23
2020-09-04 16:00:00 34.3 13 Sur 26 Sur 0 -- -- 25
2020-09-04 15:00:00 34.1 9 Este 24 Sur 0 -- -- 24
2020-09-04 14:00:00 33 5 Nordeste 15 Este 0 -- -- 26
2020-09-04 13:00:00 31.5 7 Este 15 Sudeste 0 -- -- 28
2020-09-04 12:00:00 30 7 Sudeste 15 Sudeste 0 -- -- 30
2020-09-04 11:00:00 27.6 8 Sudeste 16 Sudeste 0 -- -- 35
2020-09-04 10:00:00 24.4 11 Sudeste 15 Sudeste 0 -- -- 41
2020-09-04 09:00:00 20.9 6 Sudeste 14 Sudeste 0 -- -- 47
2020-09-04 08:00:00 19.5 13 Sudeste 14 Sudeste 0 -- -- 49
2020-09-04 07:00:00 18.9 8 Sur 17 Sudeste 0 -- -- 50
2020-09-04 06:00:00 20.4 12 Sudeste 14 Sudeste 0 -- -- 46
2020-09-04 05:00:00 18.2 8 Sudeste 12 Sudeste 0 -- -- 48
2020-09-04 04:00:00 19.2 0 Calma 9 Sur 0 -- -- 45
2020-09-04 03:00:00 21.6 3 Sudeste 14 Oeste 0 -- -- 39
2020-09-04 02:00:00 22.9 3 Este 19 Sudoeste 0 -- -- 35
2020-09-04 01:00:00 21.6 4 Oeste 5 Oeste 0 -- -- 33
2020-09-04 00:00:00 22.9 0 Calma -- -- 0 -- -- 30
2020-09-03 23:00:00 23 0 Calma 5 Sudeste 0 -- -- 29
2020-09-03 22:00:00 24.7 4 Sudeste 8 Sudeste 0 -- -- 25
2020-09-03 21:00:00 29 4 Sudeste 13 Sudeste 0 -- -- 21
2020-09-03 20:00:00 32.8 13 Sur 26 Sudeste 0 -- -- 17
2020-09-03 19:00:00 34.2 11 Sur 27 Este 0 -- -- 17
2020-09-03 18:00:00 34.7 5 Este 24 Sudeste 0 -- -- 17
2020-09-03 17:00:00 35 5 Este 26 Sur 0 -- -- 17
2020-09-03 16:00:00 34.6 12 Sudeste 31 Sudeste 0 -- -- 17
2020-09-03 15:00:00 33.9 13 Sudeste 28 Sudeste 0 -- -- 18
2020-09-03 14:00:00 33.4 9 Este 23 Sudeste 0 -- -- 19
2020-09-03 13:00:00 31.8 10 Sudeste 22 Sudeste 0 -- -- 22
2020-09-03 12:00:00 29.9 11 Sudeste 20 Sudeste 0 -- -- 24
2020-09-03 11:00:00 27.4 13 Sudeste 22 Sudeste 0 -- -- 26
2020-09-03 10:00:00 25 11 Sudeste 14 Sudeste 0 -- -- 27
2020-09-03 09:00:00 19.5 5 Sudeste 6 Sudeste 0 -- -- 39
2020-09-03 08:00:00 16.1 0 Calma 3 Norte 0 -- -- 41
2020-09-03 07:00:00 16.9 0 Calma 8 Noroeste 0 -- -- 38
2020-09-03 06:00:00 19.1 4 Noroeste 9 Norte 0 -- -- 34
2020-09-03 05:00:00 18.1 6 Nordeste 9 Nordeste 0 -- -- 37
2020-09-03 04:00:00 17.9 0 Calma 10 Oeste 0 -- -- 37
2020-09-03 03:00:00 21.2 4 Nordeste 20 Sudoeste 0 -- -- 31
2020-09-03 02:00:00 20.4 2 Noroeste 3 Noroeste 0 -- -- 29
2020-09-03 01:00:00 20 0 Calma 4 Sudoeste 0 -- -- 31
2020-09-03 00:00:00 23.5 4 Noroeste 6 Noroeste 0 -- -- 27
2020-09-02 23:00:00 23 3 Oeste 8 Nordeste 0 -- -- 27
2020-09-02 22:00:00 24.1 3 Noroeste 5 Oeste 0 -- -- 26
2020-09-02 21:00:00 27.4 5 Sudoeste 9 Sur 0 -- -- 24
2020-09-02 20:00:00 31.6 6 Sur 12 Sudeste 0 -- -- 17
2020-09-02 19:00:00 32.7 8 Sur 17 Sur 0 -- -- 16
2020-09-02 18:00:00 33.3 14 Sur 20 Sudoeste 0 -- -- 16
2020-09-02 17:00:00 32.8 10 Sudeste 26 Sur 0 -- -- 16
2020-09-02 16:00:00 33 10 Sur 28 Sur 0 -- -- 17
2020-09-02 15:00:00 32.5 12 Sur 22 Sudeste 0 -- -- 17
2020-09-02 14:00:00 30.9 9 Sur 26 Sudeste 0 -- -- 23
2020-09-02 13:00:00 29.4 16 Sudeste 30 Sudeste 0 -- -- 24
2020-09-02 12:00:00 27.8 8 Sudeste 18 Sudeste 0 -- -- 30
2020-09-02 11:00:00 24 4 Norte 9 Norte 0 -- -- 40
2020-09-02 10:00:00 20.6 7 Norte 12 Norte 0 -- -- 51
2020-09-02 09:00:00 15.7 3 Sudeste 8 Sudeste 0 -- -- 68
2020-09-02 08:00:00 14.7 3 Noroeste 10 Noroeste 0 -- -- 69
2020-09-02 07:00:00 14.3 2 Norte 5 Norte 0 -- -- 72
2020-09-02 06:00:00 12.8 0 Calma 4 Sur 0 -- -- 76
2020-09-02 05:00:00 13.7 2 Sudeste 6 Noroeste 0 -- -- 72
2020-09-02 04:00:00 15.9 0 Calma 14 Oeste 0 -- -- 66
2020-09-02 03:00:00 17.9 10 Noroeste 15 Oeste 0 -- -- 61
2020-09-02 02:00:00 18.7 12 Oeste 20 Noroeste 0 -- -- 59
2020-09-02 01:00:00 20.1 15 Noroeste 18 Noroeste 0 -- -- 55
2020-09-02 00:00:00 21.3 11 Noroeste 18 Noroeste 0 -- -- 51
2020-09-01 23:00:00 23.6 13 Noroeste 29 Noroeste 0 -- -- 44
2020-09-01 22:00:00 25.7 21 Noroeste 30 Noroeste 0 -- -- 38
2020-09-01 21:00:00 27 8 Noroeste 17 Noroeste 0 -- -- 22
2020-09-01 20:00:00 30.5 9 Noroeste 22 Noroeste 0 -- -- 19
2020-09-01 19:00:00 31.7 8 Noroeste 23 Sudoeste 0 -- -- 15
2020-09-01 18:00:00 31.7 12 Oeste 26 Oeste 0 -- -- 15
2020-09-01 17:00:00 31.3 8 Norte 30 Oeste 0 -- -- 15
2020-09-01 16:00:00 31.2 13 Oeste 30 Oeste 0 -- -- 15
2020-09-01 15:00:00 30.5 9 Sur 23 Sudoeste 0 -- -- 17
2020-09-01 14:00:00 28.9 9 Oeste 21 Sudoeste 0 -- -- 18
2020-09-01 13:00:00 28.6 6 Oeste 19 Oeste 0 -- -- 21
2020-09-01 12:00:00 27.2 10 Sudoeste 14 Sudoeste 0 -- -- 22
2020-09-01 11:00:00 24.8 6 Sudeste 10 Sudeste 0 -- -- 26
2020-09-01 10:00:00 20.7 2 Este 8 Noroeste 0 -- -- 32
2020-09-01 09:00:00 18.1 5 Noroeste 15 Oeste 0 -- -- 36
2020-09-01 08:00:00 17.3 2 Oeste 10 Noroeste 0 -- -- 37
2020-09-01 07:00:00 15.9 4 Norte 6 Sudoeste 0 -- -- 39
2020-09-01 06:00:00 18.5 5 Noroeste 10 Noroeste 0 -- -- 33
2020-09-01 05:00:00 17.6 0 Calma 5 Oeste 0 -- -- 35
2020-09-01 04:00:00 19 3 Oeste 13 Oeste 0 -- -- 31
2020-09-01 03:00:00 18.1 0 Calma 2 Norte 0 -- -- 32
2020-09-01 02:00:00 18.2 0 Calma 4 Sudoeste 0 -- -- 32
2020-09-01 01:00:00 19.7 2 Nordeste 6 Nordeste 0 -- -- 29
2020-09-01 00:00:00 22 8 Nordeste 17 Nordeste 0 -- -- 27
2020-08-31 23:00:00 23.1 11 Nordeste 19 Nordeste 0 -- -- 23
2020-08-31 22:00:00 23.7 8 Nordeste 15 Nordeste 0 -- -- 23
2020-08-31 21:00:00 26.1 6 Nordeste 14 Norte 0 -- -- 20
2020-08-31 20:00:00 29.5 7 Norte 16 Norte 0 -- -- 17
2020-08-31 19:00:00 30.9 4 Sudoeste 17 Norte 0 -- -- 15
2020-08-31 18:00:00 30.6 6 Este 15 Sudoeste 0 -- -- 15
2020-08-31 17:00:00 30.5 8 Sudoeste 16 Sudoeste 0 -- -- 16
2020-08-31 16:00:00 30 7 Noroeste 28 Este 0 -- -- 16
2020-08-31 15:00:00 29 12 Este 26 Este 0 -- -- 18
2020-08-31 14:00:00 28.2 12 Sur 25 Sudeste 0 -- -- 19
2020-08-31 13:00:00 27.8 12 Sur 25 Sudeste 0 -- -- 20
2020-08-31 12:00:00 26.3 13 Sudeste 26 Sudeste 0 -- -- 23
2020-08-31 11:00:00 24.1 13 Sudeste 23 Este 0 -- -- 26
2020-08-31 10:00:00 21.7 13 Sudeste 20 Sudeste 0 -- -- 29
2020-08-31 09:00:00 18 8 Este 10 Este 0 -- -- 35
2020-08-31 08:00:00 13.2 0 Calma 10 Nordeste 0 -- -- 45
2020-08-31 07:00:00 13.7 7 Nordeste 10 Nordeste 0 -- -- 44
2020-08-31 06:00:00 13.5 0 Calma 3 Sudeste 0 -- -- 43
2020-08-31 05:00:00 15.1 0 Calma 7 Nordeste 0 -- -- 40
2020-08-31 04:00:00 14.4 4 Nordeste 9 Norte 0 -- -- 42
2020-08-31 03:00:00 16.2 2 Noroeste 13 Norte 0 -- -- 39
2020-08-31 02:00:00 17.6 10 Norte 15 Nordeste 0 -- -- 37
2020-08-31 01:00:00 17.9 10 Norte 21 Norte 0 -- -- 35
2020-08-31 00:00:00 17 8 Nordeste 13 Nordeste 0 -- -- 36
2020-08-30 23:00:00 19.1 6 Nordeste 12 Nordeste 0 -- -- 30
2020-08-30 22:00:00 21.3 8 Nordeste 18 Nordeste 0 -- -- 26
2020-08-30 21:00:00 23.4 12 Nordeste 23 Nordeste 0 -- -- 22
2020-08-30 20:00:00 25.4 14 Nordeste 23 Norte 0 -- -- 23
2020-08-30 19:00:00 26.6 13 Este 28 Norte 0 -- -- 23
2020-08-30 18:00:00 27.3 12 Nordeste 25 Nordeste 0 -- -- 23
2020-08-30 17:00:00 27.5 14 Norte 26 Nordeste 0 -- -- 24
2020-08-30 16:00:00 27.4 10 Norte 24 Nordeste 0 -- -- 23
2020-08-30 15:00:00 26.5 11 Norte 28 Norte 0 -- -- 27
2020-08-30 14:00:00 26.3 8 Sur 26 Sudeste 0 -- -- 28
2020-08-30 13:00:00 24.6 7 Nordeste 26 Este 0 -- -- 30
2020-08-30 12:00:00 23.6 12 Sudeste 22 Sudeste 0 -- -- 33
2020-08-30 11:00:00 21.2 11 Este 19 Sudeste 0 -- -- 39
2020-08-30 10:00:00 17.8 10 Nordeste 17 Nordeste 0 -- -- 49
2020-08-30 09:00:00 15.6 10 Norte 15 Norte 0 -- -- 55
2020-08-30 08:00:00 13 6 Norte 16 Norte 0 -- -- 62
2020-08-30 07:00:00 14.1 6 Norte 19 Norte 0 -- -- 58
2020-08-30 06:00:00 15.3 12 Norte 18 Norte 0 -- -- 54
2020-08-30 05:00:00 15.1 10 Norte 18 Norte 0 -- -- 54
2020-08-30 04:00:00 17 15 Norte 22 Norte 0 -- -- 49
2020-08-30 03:00:00 17.4 11 Norte 27 Norte 0 -- -- 47
2020-08-30 02:00:00 18.3 17 Norte 26 Norte 0 -- -- 43
2020-08-30 01:00:00 19.1 11 Norte 28 Norte 0 -- -- 41
2020-08-30 00:00:00 19.9 13 Norte 23 Noroeste 0 -- -- 41
2020-08-29 23:00:00 20.8 10 Norte 24 Norte 0 -- -- 37
2020-08-29 22:00:00 21.6 10 Norte 22 Norte 0 -- -- 34
2020-08-29 21:00:00 23.3 15 Norte 27 Norte 0 -- -- 30
2020-08-29 20:00:00 24.8 15 Norte 33 Norte 0 -- -- 28
2020-08-29 19:00:00 25.6 20 Norte 39 Norte 0 -- -- 26
2020-08-29 18:00:00 26 21 Norte 36 Noroeste 0 -- -- 26
2020-08-29 17:00:00 25.8 19 Norte 38 Norte 0 -- -- 26
2020-08-29 16:00:00 25.6 21 Norte 42 Norte 0 -- -- 29
2020-08-29 15:00:00 25 21 Norte 40 Nordeste 0 -- -- 30
2020-08-29 14:00:00 23.7 23 Norte 39 Norte 0 -- -- 32
2020-08-29 13:00:00 22.4 23 Norte 37 Norte 0 -- -- 37
2020-08-29 12:00:00 21 23 Norte 44 Norte 0 -- -- 40
2020-08-29 11:00:00 19.1 29 Norte 45 Norte 0 -- -- 44
2020-08-29 10:00:00 17.4 18 Norte 40 Norte 0 -- -- 48
2020-08-29 09:00:00 15 24 Norte 39 Norte 0 -- -- 55
2020-08-29 08:00:00 13.8 18 Noroeste 36 Norte 0 -- -- 58
2020-08-29 07:00:00 14.1 21 Noroeste 33 Noroeste 0 -- -- 60
2020-08-29 06:00:00 14.6 22 Noroeste 37 Noroeste 0 -- -- 63
2020-08-29 05:00:00 15.3 21 Norte 34 Norte 0 -- -- 61
2020-08-29 04:00:00 15.7 22 Noroeste 34 Noroeste 0 -- -- 64
2020-08-29 03:00:00 16.3 21 Noroeste 35 Noroeste 0 -- -- 63
2020-08-29 02:00:00 16.9 23 Noroeste 43 Noroeste 0 -- -- 62
2020-08-29 01:00:00 17.9 24 Noroeste 40 Noroeste 0 -- -- 58
2020-08-29 00:00:00 18.6 17 Noroeste 30 Noroeste 0 -- -- 53
2020-08-28 23:00:00 20.1 19 Noroeste 36 Noroeste 0 -- -- 49
2020-08-28 22:00:00 22.2 24 Noroeste 44 Noroeste 0 -- -- 39
2020-08-28 21:00:00 24.6 23 Noroeste 39 Noroeste 0 -- -- 30
2020-08-28 20:00:00 27.5 25 Noroeste 39 Oeste 0 -- -- 25
2020-08-28 19:00:00 29.6 24 Noroeste 39 Oeste 0 -- -- 19
2020-08-28 18:00:00 30.7 21 Noroeste 60 Noroeste 0 -- -- 17
2020-08-28 17:00:00 31.9 25 Noroeste 37 Norte 0 -- -- 16
2020-08-28 16:00:00 31.8 23 Noroeste 39 Oeste 0 -- -- 14
2020-08-28 15:00:00 31 24 Noroeste 36 Oeste 0 -- -- 28
2020-08-28 14:00:00 29.5 17 Noroeste 33 Norte 0 -- -- 38
2020-08-28 13:00:00 28.1 15 Norte 31 Noroeste 0 -- -- 45
2020-08-28 12:00:00 26.2 17 Norte 33 Noroeste 0 -- -- 49
2020-08-28 11:00:00 25 15 Noroeste 35 Norte 0 -- -- 55
2020-08-28 10:00:00 22.8 26 Norte 37 Noroeste 0 -- -- 62
2020-08-28 09:00:00 20.9 22 Noroeste 33 Noroeste 0 -- -- 65
2020-08-28 08:00:00 19.6 17 Norte 29 Norte 0 -- -- 67
2020-08-28 07:00:00 20 19 Norte 32 Norte 0 -- -- 66
2020-08-28 06:00:00 20.6 17 Norte 26 Norte 0 -- -- 65
2020-08-28 05:00:00 21.3 15 Norte 29 Noroeste 0 -- -- 64
2020-08-28 04:00:00 20.4 12 Noroeste 15 Noroeste 0 -- -- 72
2020-08-28 03:00:00 22 10 Noroeste 21 Noroeste 0 -- -- 68
2020-08-28 02:00:00 22.5 9 Noroeste 19 Noroeste 0 -- -- 67
2020-08-28 01:00:00 23.8 13 Noroeste 29 Noroeste 0 -- -- 62
2020-08-28 00:00:00 25.4 21 Noroeste 29 Noroeste 0 -- -- 55
2020-08-27 23:00:00 27.3 18 Noroeste 30 Noroeste 0 -- -- 46
2020-08-27 22:00:00 29.1 20 Noroeste 35 Noroeste 0 -- -- 42
2020-08-27 21:00:00 31.5 24 Noroeste 38 Oeste 0 -- -- 41
2020-08-27 20:00:00 34.3 24 Oeste 37 Oeste 0 -- -- 34
2020-08-27 19:00:00 35.4 26 Oeste 37 Oeste 0 -- -- 32
2020-08-27 18:00:00 36.5 21 Oeste 36 Oeste 0 -- -- 32
2020-08-27 17:00:00 37.2 18 Noroeste 44 Noroeste 0 -- -- 27
2020-08-27 16:00:00 36.5 9 Sur 24 Noroeste 0 -- -- 32
2020-08-27 15:00:00 36 8 Noroeste 20 Oeste 0 -- -- 30
2020-08-27 14:00:00 34.3 5 Este 19 Noroeste 0 -- -- 35
2020-08-27 13:00:00 32.5 6 Oeste 15 Noroeste 0 -- -- 40
2020-08-27 12:00:00 30.1 6 Noroeste 16 Noroeste 0 -- -- 47
2020-08-27 11:00:00 27.6 9 Noroeste 15 Noroeste 0 -- -- 53
2020-08-27 10:00:00 24.7 4 Este 15 Norte 0 -- -- 61
2020-08-27 09:00:00 20.1 0 Calma 3 Sudeste 0 -- -- 71
2020-08-27 08:00:00 18.3 5 Sudeste 8 Sudeste 0 -- -- 76
2020-08-27 07:00:00 21.3 3 Norte 16 Noroeste 0 -- -- 68
2020-08-27 06:00:00 21 5 Noroeste 10 Oeste 0 -- -- 64
2020-08-27 05:00:00 21 6 Noroeste 10 Oeste 0 -- -- 65
2020-08-27 04:00:00 22.3 7 Oeste 11 Oeste 0 -- -- 61
2020-08-27 03:00:00 23.6 6 Noroeste 13 Oeste 0 -- -- 56
2020-08-27 02:00:00 24.2 6 Oeste 9 Oeste 0 -- -- 50
2020-08-27 01:00:00 25.2 8 Oeste 11 Noroeste 0 -- -- 45
2020-08-27 00:00:00 26.1 7 Noroeste 17 Noroeste 0 -- -- 45
2020-08-26 23:00:00 28.7 10 Noroeste 19 Noroeste 0 -- -- 40
2020-08-26 22:00:00 29.5 5 Oeste 16 Oeste 0 -- -- 27
2020-08-26 21:00:00 32.9 14 Oeste 23 Oeste 0 -- -- 22
2020-08-26 20:00:00 35.9 14 Oeste 21 Oeste 0 -- -- 16
2020-08-26 19:00:00 37.2 12 Noroeste 24 Oeste 0 -- -- 17
2020-08-26 18:00:00 37.4 12 Oeste 24 Oeste 0 -- -- 17
2020-08-26 17:00:00 36.8 12 Sudoeste 22 Oeste 0 -- -- 16
2020-08-26 16:00:00 36.3 14 Oeste 25 Sudoeste 0 -- -- 16
2020-08-26 15:00:00 35.5 9 Oeste 27 Sudoeste 0 -- -- 20
2020-08-26 14:00:00 33.8 12 Oeste 23 Oeste 0 -- -- 23
2020-08-26 13:00:00 32.4 9 Oeste 20 Oeste 0 -- -- 25
2020-08-26 12:00:00 29.9 11 Oeste 18 Oeste 0 -- -- 31
2020-08-26 11:00:00 27.7 10 Oeste 15 Oeste 0 -- -- 40
2020-08-26 10:00:00 25.5 2 Nordeste 11 Nordeste 0 -- -- 43
2020-08-26 09:00:00 20.5 5 Sudeste 7 Este 0 -- -- 54
2020-08-26 08:00:00 16.2 3 Sur 4 Sudeste 0 -- -- 65
2020-08-26 07:00:00 17 0 Calma 5 Sudeste 0 -- -- 60
2020-08-26 06:00:00 19 0 Calma 7 Noroeste 0 -- -- 57
2020-08-26 05:00:00 21.1 4 Noroeste 9 Oeste 0 -- -- 52
2020-08-26 04:00:00 21.5 6 Oeste 8 Oeste 0 -- -- 48
2020-08-26 03:00:00 22.6 5 Oeste 12 Oeste 0 -- -- 44
2020-08-26 02:00:00 24.1 6 Noroeste 9 Noroeste 0 -- -- 40
2020-08-26 01:00:00 24.9 5 Noroeste 10 Noroeste 0 -- -- 37
2020-08-26 00:00:00 26 6 Noroeste 19 Noroeste 0 -- -- 36
2020-08-25 23:00:00 29.1 17 Noroeste 27 Noroeste 0 -- -- 28
2020-08-25 22:00:00 29.1 9 Noroeste 10 Noroeste 0 -- -- 28
2020-08-25 21:00:00 32.9 9 Noroeste 17 Oeste 0 -- -- 24
2020-08-25 20:00:00 36.4 5 Noroeste 23 Oeste 0 -- -- 20
2020-08-25 19:00:00 36.8 8 Oeste 26 Oeste 0 -- -- 20
2020-08-25 18:00:00 37.3 8 Oeste 25 Sudoeste 0 -- -- 21
2020-08-25 17:00:00 37.1 9 Oeste 26 Sudoeste 0 -- -- 20
2020-08-25 16:00:00 36.6 12 Oeste 29 Oeste 0 -- -- 20
2020-08-25 15:00:00 35.9 9 Sudoeste 20 Oeste 0 -- -- 23
2020-08-25 14:00:00 34.6 8 Oeste 21 Sudoeste 0 -- -- 27
2020-08-25 13:00:00 32.4 8 Oeste 15 Oeste 0 -- -- 33
2020-08-25 12:00:00 30.4 8 Sudoeste 13 Sudoeste 0 -- -- 36
2020-08-25 11:00:00 28.5 6 Sur 14 Sudeste 0 -- -- 41
2020-08-25 10:00:00 25.6 9 Sudeste 13 Sudeste 0 -- -- 45
2020-08-25 09:00:00 21.9 5 Sudeste 8 Sudeste 0 -- -- 57
2020-08-25 08:00:00 18.4 0 Calma 6 Oeste 0 -- -- 63
2020-08-25 07:00:00 19.5 6 Oeste 7 Oeste 0 -- -- 63
2020-08-25 06:00:00 21.2 4 Noroeste 6 Oeste 0 -- -- 58
2020-08-25 05:00:00 18.4 0 Calma 3 Sudoeste 0 -- -- 57
2020-08-25 04:00:00 20 0 Calma 10 Sur 0 -- -- 55
2020-08-25 03:00:00 21.1 4 Este 11 Sudoeste 0 -- -- 53
2020-08-25 02:00:00 23.2 3 Oeste 9 Oeste 0 -- -- 48
2020-08-25 01:00:00 24.7 4 Noroeste 8 Oeste 0 -- -- 44
2020-08-25 00:00:00 25.3 8 Oeste 14 Oeste 0 -- -- 28
2020-08-24 23:00:00 24.7 0 Calma 3 Sudoeste 0 -- -- 25
2020-08-24 22:00:00 26 0 Calma 5 Norte 0 -- -- 24
2020-08-24 21:00:00 31.8 2 Sudoeste 9 Sur 0 -- -- 19
2020-08-24 20:00:00 35.2 7 Sur 15 Sur 0 -- -- 14
2020-08-24 19:00:00 35.7 10 Sudoeste 19 Sudoeste 0 -- -- 15
2020-08-24 18:00:00 36 10 Sur 22 Sudeste 0 -- -- 14
2020-08-24 17:00:00 36.3 9 Sudoeste 22 Sudoeste 0 -- -- 16
2020-08-24 16:00:00 36.4 9 Oeste 25 Sudoeste 0 -- -- 16
2020-08-24 15:00:00 35.7 8 Sur 26 Sudoeste 0 -- -- 19
2020-08-24 14:00:00 33.9 9 Sudeste 16 Sudeste 0 -- -- 24
2020-08-24 13:00:00 32.7 5 Sudeste 14 Sudeste 0 -- -- 25
2020-08-24 12:00:00 31 6 Sur 13 Sur 0 -- -- 30
2020-08-24 11:00:00 28 4 Norte 10 Nordeste 0 -- -- 33
2020-08-24 10:00:00 24.9 7 Nordeste 12 Nordeste 0 -- -- 40
2020-08-24 09:00:00 22.3 2 Norte 6 Nordeste 0 -- -- 48
2020-08-24 08:00:00 19.9 2 Oeste 10 Oeste 0 -- -- 52
2020-08-24 07:00:00 20.6 4 Noroeste 13 Norte 0 -- -- 48
2020-08-24 06:00:00 20.7 9 Oeste 18 Norte 0 -- -- 50
2020-08-24 05:00:00 22.8 8 Noroeste 20 Norte 0 -- -- 43
2020-08-24 04:00:00 24.2 15 Norte 22 Norte 0 -- -- 38
2020-08-24 03:00:00 23.9 12 Norte 23 Noroeste 0 -- -- 39
2020-08-24 02:00:00 25 17 Norte 28 Norte 0 -- -- 37
2020-08-24 01:00:00 25.8 15 Norte 24 Norte 0 -- -- 32
2020-08-24 00:00:00 24.5 13 Noroeste 21 Noroeste 0 -- -- 31
2020-08-23 23:00:00 25 5 Norte 7 Norte 0 -- -- 25
2020-08-23 22:00:00 28.3 6 Norte 13 Norte 0 -- -- 22
2020-08-23 21:00:00 31.4 11 Norte 19 Norte 0 -- -- 19
2020-08-23 20:00:00 33.6 13 Norte 23 Nordeste 0 -- -- 17
2020-08-23 19:00:00 34.7 10 Norte 24 Norte 0 -- -- 16
2020-08-23 18:00:00 35 11 Nordeste 24 Este 0 -- -- 18
2020-08-23 17:00:00 34.7 10 Nordeste 30 Nordeste 0 -- -- 16
2020-08-23 16:00:00 34.3 14 Este 27 Nordeste 0 -- -- 18
2020-08-23 15:00:00 33.2 12 Norte 24 Norte 0 -- -- 18
2020-08-23 14:00:00 32.2 10 Norte 22 Norte 0 -- -- 20
2020-08-23 13:00:00 29.9 8 Nordeste 22 Nordeste 0 -- -- 26
2020-08-23 12:00:00 28 13 Norte 25 Norte 0 -- -- 31
2020-08-23 11:00:00 26.1 15 Norte 26 Norte 0 -- -- 33
2020-08-23 10:00:00 22.7 10 Norte 21 Norte 0 -- -- 47
2020-08-23 09:00:00 20.5 8 Norte 15 Norte 0 -- -- 51
2020-08-23 08:00:00 17.2 8 Noroeste 15 Oeste 0 -- -- 60
2020-08-23 07:00:00 18.9 10 Norte 16 Norte 0 -- -- 50
2020-08-23 06:00:00 19.5 8 Norte 15 Norte 0 -- -- 48
2020-08-23 05:00:00 20.7 12 Norte 17 Norte 0 -- -- 45
2020-08-23 04:00:00 20.8 13 Norte 22 Norte 0 -- -- 47
2020-08-23 03:00:00 21.2 11 Norte 15 Norte 0 -- -- 42
2020-08-23 02:00:00 21.7 9 Norte 14 Norte 0 -- -- 37
2020-08-23 01:00:00 24 12 Norte 24 Norte 0 -- -- 33
2020-08-23 00:00:00 23.2 11 Noroeste 17 Noroeste 0 -- -- 26
2020-08-22 23:00:00 23.6 6 Noroeste 13 Noroeste 0 -- -- 23
2020-08-22 22:00:00 26.5 10 Noroeste 13 Noroeste 0 -- -- 19
2020-08-22 21:00:00 29.8 9 Norte 19 Noroeste 0 -- -- 17
2020-08-22 20:00:00 32.5 11 Norte 20 Norte 0 -- -- 14
2020-08-22 19:00:00 33.7 12 Noroeste 25 Norte 0 -- -- 13
2020-08-22 18:00:00 33.5 11 Norte 20 Norte 0 -- -- 16
2020-08-22 17:00:00 33.1 13 Norte 26 Noroeste 0 -- -- 18
2020-08-22 16:00:00 32.2 11 Norte 21 Noroeste 0 -- -- 22
2020-08-22 15:00:00 31.2 15 Norte 32 Norte 0 -- -- 28
2020-08-22 14:00:00 30 8 Nordeste 23 Este 0 -- -- 32
2020-08-22 13:00:00 28 10 Nordeste 21 Norte 0 -- -- 37
2020-08-22 12:00:00 26.3 11 Este 18 Norte 0 -- -- 43
2020-08-22 11:00:00 23.3 12 Nordeste 19 Norte 0 -- -- 54
2020-08-22 10:00:00 20.5 9 Norte 14 Norte 0 -- -- 63
2020-08-22 09:00:00 18.2 5 Norte 9 Norte 0 -- -- 73
2020-08-22 08:00:00 14.1 5 Noroeste 10 Noroeste 0 -- -- 85
2020-08-22 07:00:00 13.9 4 Noroeste 11 Oeste 0 -- -- 88
2020-08-22 06:00:00 15.6 6 Noroeste 12 Noroeste 0 -- -- 81
2020-08-22 05:00:00 16.9 0 Calma 15 Oeste 0 -- -- 74
2020-08-22 04:00:00 17.3 12 Oeste 16 Oeste 0 -- -- 74
2020-08-22 03:00:00 18.1 10 Oeste 14 Noroeste 0 -- -- 68
2020-08-22 02:00:00 19.7 3 Norte 15 Norte 0 -- -- 61
2020-08-22 01:00:00 20.9 9 Norte 17 Norte 0 -- -- 56
2020-08-22 00:00:00 22 11 Noroeste 25 Noroeste 0 -- -- 52